sensor_id;sensor_type;location;lat;lon;timestamp;P1;durP1;ratioP1;P2;durP2;ratioP2
5869;SDS011;2961;47.702;9.410;2022-11-11T00:00:14;7.63;;;6.27;;
5869;SDS011;2961;47.702;9.410;2022-11-11T00:02:41;11.00;;;6.50;;
5869;SDS011;2961;47.702;9.410;2022-11-11T00:05:08;9.83;;;6.47;;
5869;SDS011;2961;47.702;9.410;2022-11-11T00:07:36;13.20;;;6.93;;
5869;SDS011;2961;47.702;9.410;2022-11-11T00:10:03;11.83;;;7.10;;
5869;SDS011;2961;47.702;9.410;2022-11-11T00:12:31;6.27;;;5.67;;
5869;SDS011;2961;47.702;9.410;2022-11-11T00:14:58;13.07;;;6.10;;
5869;SDS011;2961;47.702;9.410;2022-11-11T00:17:24;9.47;;;6.00;;
5869;SDS011;2961;47.702;9.410;2022-11-11T00:20:09;5.73;;;5.00;;
5869;SDS011;2961;47.702;9.410;2022-11-11T00:22:55;5.43;;;4.93;;
5869;SDS011;2961;47.702;9.410;2022-11-11T00:25:41;8.30;;;5.57;;
5869;SDS011;2961;47.702;9.410;2022-11-11T00:28:07;13.40;;;5.40;;
5869;SDS011;2961;47.702;9.410;2022-11-11T00:30:34;9.30;;;5.17;;
5869;SDS011;2961;47.702;9.410;2022-11-11T00:33:01;6.50;;;5.80;;
5869;SDS011;2961;47.702;9.410;2022-11-11T00:35:28;8.40;;;5.40;;
5869;SDS011;2961;47.702;9.410;2022-11-11T00:38:13;6.73;;;5.37;;
5869;SDS011;2961;47.702;9.410;2022-11-11T00:41:01;5.90;;;4.30;;
5869;SDS011;2961;47.702;9.410;2022-11-11T00:43:28;7.23;;;5.60;;
5869;SDS011;2961;47.702;9.410;2022-11-11T00:45:55;7.37;;;5.10;;
5869;SDS011;2961;47.702;9.410;2022-11-11T00:48:42;7.20;;;5.50;;
5869;SDS011;2961;47.702;9.410;2022-11-11T00:51:26;5.63;;;4.70;;
5869;SDS011;2961;47.702;9.410;2022-11-11T00:53:54;5.40;;;4.90;;
5869;SDS011;2961;47.702;9.410;2022-11-11T00:56:21;5.37;;;4.87;;
5869;SDS011;2961;47.702;9.410;2022-11-11T00:58:49;6.53;;;4.90;;
5869;SDS011;2961;47.702;9.410;2022-11-11T01:01:16;5.03;;;4.57;;
5869;SDS011;2961;47.702;9.410;2022-11-11T01:03:43;6.43;;;4.57;;
5869;SDS011;2961;47.702;9.410;2022-11-11T01:06:10;12.20;;;4.80;;
5869;SDS011;2961;47.702;9.410;2022-11-11T01:08:38;7.17;;;4.30;;
5869;SDS011;2961;47.702;9.410;2022-11-11T01:11:12;5.23;;;4.73;;
5869;SDS011;2961;47.702;9.410;2022-11-11T01:13:39;4.53;;;4.13;;
5869;SDS011;2961;47.702;9.410;2022-11-11T01:16:08;6.97;;;5.10;;
5869;SDS011;2961;47.702;9.410;2022-11-11T01:18:37;5.60;;;4.63;;
5869;SDS011;2961;47.702;9.410;2022-11-11T01:21:05;4.67;;;4.27;;
5869;SDS011;2961;47.702;9.410;2022-11-11T01:23:34;9.40;;;4.80;;
5869;SDS011;2961;47.702;9.410;2022-11-11T01:26:02;6.77;;;4.37;;
5869;SDS011;2961;47.702;9.410;2022-11-11T01:28:32;8.20;;;4.43;;
5869;SDS011;2961;47.702;9.410;2022-11-11T01:30:59;7.90;;;5.73;;
5869;SDS011;2961;47.702;9.410;2022-11-11T01:33:27;4.23;;;3.80;;
5869;SDS011;2961;47.702;9.410;2022-11-11T01:35:53;6.17;;;4.43;;
5869;SDS011;2961;47.702;9.410;2022-11-11T01:38:20;7.30;;;5.40;;
5869;SDS011;2961;47.702;9.410;2022-11-11T01:40:47;8.27;;;5.47;;
5869;SDS011;2961;47.702;9.410;2022-11-11T01:43:16;7.93;;;4.73;;
5869;SDS011;2961;47.702;9.410;2022-11-11T01:45:56;11.03;;;6.80;;
5869;SDS011;2961;47.702;9.410;2022-11-11T01:48:26;13.90;;;7.13;;
5869;SDS011;2961;47.702;9.410;2022-11-11T01:51:26;12.47;;;6.40;;
5869;SDS011;2961;47.702;9.410;2022-11-11T01:53:59;8.50;;;6.00;;
5869;SDS011;2961;47.702;9.410;2022-11-11T01:56:31;7.50;;;5.57;;
5869;SDS011;2961;47.702;9.410;2022-11-11T01:59:00;5.73;;;4.80;;
5869;SDS011;2961;47.702;9.410;2022-11-11T02:01:30;6.07;;;4.60;;
5869;SDS011;2961;47.702;9.410;2022-11-11T02:03:57;4.80;;;4.30;;
5869;SDS011;2961;47.702;9.410;2022-11-11T02:06:43;8.93;;;4.40;;
5869;SDS011;2961;47.702;9.410;2022-11-11T02:09:10;10.10;;;5.00;;
5869;SDS011;2961;47.702;9.410;2022-11-11T02:11:38;8.30;;;5.30;;
5869;SDS011;2961;47.702;9.410;2022-11-11T02:14:20;8.57;;;5.17;;
5869;SDS011;2961;47.702;9.410;2022-11-11T02:17:05;5.57;;;4.90;;
5869;SDS011;2961;47.702;9.410;2022-11-11T02:19:37;4.33;;;3.93;;
5869;SDS011;2961;47.702;9.410;2022-11-11T02:22:11;6.80;;;4.50;;
5869;SDS011;2961;47.702;9.410;2022-11-11T02:24:43;5.00;;;3.77;;
5869;SDS011;2961;47.702;9.410;2022-11-11T02:27:10;4.73;;;4.23;;
5869;SDS011;2961;47.702;9.410;2022-11-11T02:29:40;3.57;;;3.37;;
5869;SDS011;2961;47.702;9.410;2022-11-11T02:32:09;7.77;;;4.50;;
5869;SDS011;2961;47.702;9.410;2022-11-11T02:34:35;5.03;;;4.20;;
5869;SDS011;2961;47.702;9.410;2022-11-11T02:37:03;4.97;;;4.40;;
5869;SDS011;2961;47.702;9.410;2022-11-11T02:39:33;4.87;;;4.10;;
5869;SDS011;2961;47.702;9.410;2022-11-11T02:42:04;5.17;;;4.63;;
5869;SDS011;2961;47.702;9.410;2022-11-11T02:44:34;5.07;;;4.53;;
5869;SDS011;2961;47.702;9.410;2022-11-11T02:47:01;5.77;;;4.33;;
5869;SDS011;2961;47.702;9.410;2022-11-11T02:49:29;6.67;;;4.03;;
5869;SDS011;2961;47.702;9.410;2022-11-11T02:51:55;5.50;;;4.67;;
5869;SDS011;2961;47.702;9.410;2022-11-11T02:54:22;5.70;;;5.10;;
5869;SDS011;2961;47.702;9.410;2022-11-11T02:56:49;4.47;;;4.07;;
5869;SDS011;2961;47.702;9.410;2022-11-11T02:59:36;6.50;;;4.63;;
5869;SDS011;2961;47.702;9.410;2022-11-11T03:02:04;8.23;;;4.23;;
5869;SDS011;2961;47.702;9.410;2022-11-11T03:04:32;5.40;;;4.20;;
5869;SDS011;2961;47.702;9.410;2022-11-11T03:06:59;11.30;;;4.60;;
5869;SDS011;2961;47.702;9.410;2022-11-11T03:09:26;5.07;;;4.30;;
5869;SDS011;2961;47.702;9.410;2022-11-11T03:11:52;4.60;;;4.17;;
5869;SDS011;2961;47.702;9.410;2022-11-11T03:14:19;10.83;;;4.47;;
5869;SDS011;2961;47.702;9.410;2022-11-11T03:16:47;8.10;;;5.00;;
5869;SDS011;2961;47.702;9.410;2022-11-11T03:19:31;4.90;;;4.47;;
5869;SDS011;2961;47.702;9.410;2022-11-11T03:21:59;5.33;;;4.50;;
5869;SDS011;2961;47.702;9.410;2022-11-11T03:24:25;6.30;;;4.93;;
5869;SDS011;2961;47.702;9.410;2022-11-11T03:27:12;4.87;;;4.47;;
5869;SDS011;2961;47.702;9.410;2022-11-11T03:29:38;5.10;;;4.50;;
5869;SDS011;2961;47.702;9.410;2022-11-11T03:32:08;5.17;;;4.67;;
5869;SDS011;2961;47.702;9.410;2022-11-11T03:34:35;7.63;;;4.80;;
5869;SDS011;2961;47.702;9.410;2022-11-11T03:37:02;5.20;;;4.40;;
5869;SDS011;2961;47.702;9.410;2022-11-11T03:39:47;6.63;;;4.33;;
5869;SDS011;2961;47.702;9.410;2022-11-11T03:42:14;5.03;;;4.43;;
5869;SDS011;2961;47.702;9.410;2022-11-11T03:44:40;7.43;;;4.67;;
5869;SDS011;2961;47.702;9.410;2022-11-11T03:47:09;5.17;;;4.77;;
5869;SDS011;2961;47.702;9.410;2022-11-11T03:49:49;4.63;;;3.90;;
5869;SDS011;2961;47.702;9.410;2022-11-11T03:52:16;4.30;;;4.00;;
5869;SDS011;2961;47.702;9.410;2022-11-11T03:54:43;6.37;;;5.20;;
5869;SDS011;2961;47.702;9.410;2022-11-11T03:57:09;5.20;;;4.70;;
5869;SDS011;2961;47.702;9.410;2022-11-11T04:00:02;9.33;;;4.67;;
5869;SDS011;2961;47.702;9.410;2022-11-11T04:02:31;4.93;;;4.43;;
5869;SDS011;2961;47.702;9.410;2022-11-11T04:05:15;8.77;;;5.30;;
5869;SDS011;2961;47.702;9.410;2022-11-11T04:07:59;5.70;;;4.80;;
5869;SDS011;2961;47.702;9.410;2022-11-11T04:10:43;7.27;;;5.77;;
5869;SDS011;2961;47.702;9.410;2022-11-11T04:13:10;6.70;;;4.40;;
5869;SDS011;2961;47.702;9.410;2022-11-11T04:15:55;8.83;;;5.33;;
5869;SDS011;2961;47.702;9.410;2022-11-11T04:18:33;9.50;;;5.40;;
5869;SDS011;2961;47.702;9.410;2022-11-11T04:21:18;6.27;;;5.60;;
5869;SDS011;2961;47.702;9.410;2022-11-11T04:24:03;6.47;;;4.43;;
5869;SDS011;2961;47.702;9.410;2022-11-11T04:26:52;5.10;;;4.60;;
5869;SDS011;2961;47.702;9.410;2022-11-11T04:29:18;8.90;;;4.80;;
5869;SDS011;2961;47.702;9.410;2022-11-11T04:31:54;9.60;;;5.37;;
5869;SDS011;2961;47.702;9.410;2022-11-11T04:34:41;5.40;;;4.80;;
5869;SDS011;2961;47.702;9.410;2022-11-11T04:37:09;8.87;;;5.07;;
5869;SDS011;2961;47.702;9.410;2022-11-11T04:39:37;7.93;;;5.87;;
5869;SDS011;2961;47.702;9.410;2022-11-11T04:42:21;6.10;;;5.00;;
5869;SDS011;2961;47.702;9.410;2022-11-11T04:44:48;9.13;;;5.87;;
5869;SDS011;2961;47.702;9.410;2022-11-11T04:47:32;7.80;;;5.30;;
5869;SDS011;2961;47.702;9.410;2022-11-11T04:50:01;6.83;;;4.70;;
5869;SDS011;2961;47.702;9.410;2022-11-11T04:52:28;9.97;;;5.27;;
5869;SDS011;2961;47.702;9.410;2022-11-11T04:54:55;8.67;;;6.40;;
5869;SDS011;2961;47.702;9.410;2022-11-11T04:57:41;10.70;;;7.50;;
5869;SDS011;2961;47.702;9.410;2022-11-11T05:00:09;6.97;;;6.27;;
5869;SDS011;2961;47.702;9.410;2022-11-11T05:02:37;9.83;;;6.90;;
5869;SDS011;2961;47.702;9.410;2022-11-11T05:05:24;12.83;;;7.60;;
5869;SDS011;2961;47.702;9.410;2022-11-11T05:07:51;10.87;;;7.77;;
5869;SDS011;2961;47.702;9.410;2022-11-11T05:10:36;10.57;;;7.73;;
5869;SDS011;2961;47.702;9.410;2022-11-11T05:13:03;9.57;;;7.00;;
5869;SDS011;2961;47.702;9.410;2022-11-11T05:15:53;10.17;;;7.97;;
5869;SDS011;2961;47.702;9.410;2022-11-11T05:18:38;9.20;;;6.77;;
5869;SDS011;2961;47.702;9.410;2022-11-11T05:21:24;14.10;;;8.33;;
5869;SDS011;2961;47.702;9.410;2022-11-11T05:23:53;9.60;;;7.10;;
5869;SDS011;2961;47.702;9.410;2022-11-11T05:26:37;10.47;;;7.87;;
5869;SDS011;2961;47.702;9.410;2022-11-11T05:29:04;9.00;;;7.37;;
5869;SDS011;2961;47.702;9.410;2022-11-11T05:31:30;9.60;;;7.90;;
5869;SDS011;2961;47.702;9.410;2022-11-11T05:33:57;11.00;;;8.10;;
5869;SDS011;2961;47.702;9.410;2022-11-11T05:36:25;11.60;;;7.40;;
5869;SDS011;2961;47.702;9.410;2022-11-11T05:38:52;11.20;;;8.70;;
5869;SDS011;2961;47.702;9.410;2022-11-11T05:41:19;12.77;;;7.57;;
5869;SDS011;2961;47.702;9.410;2022-11-11T05:43:46;12.53;;;8.13;;
5869;SDS011;2961;47.702;9.410;2022-11-11T05:46:12;10.57;;;8.13;;
5869;SDS011;2961;47.702;9.410;2022-11-11T05:48:39;13.13;;;8.13;;
5869;SDS011;2961;47.702;9.410;2022-11-11T05:51:27;12.07;;;7.90;;
5869;SDS011;2961;47.702;9.410;2022-11-11T05:53:55;13.80;;;8.50;;
5869;SDS011;2961;47.702;9.410;2022-11-11T05:56:22;10.03;;;7.30;;
5869;SDS011;2961;47.702;9.410;2022-11-11T05:58:49;10.37;;;7.53;;
5869;SDS011;2961;47.702;9.410;2022-11-11T06:01:16;18.60;;;8.50;;
5869;SDS011;2961;47.702;9.410;2022-11-11T06:03:43;13.13;;;8.50;;
5869;SDS011;2961;47.702;9.410;2022-11-11T06:06:10;17.33;;;8.40;;
5869;SDS011;2961;47.702;9.410;2022-11-11T06:08:39;11.73;;;8.43;;
5869;SDS011;2961;47.702;9.410;2022-11-11T06:11:06;15.40;;;9.52;;
5869;SDS011;2961;47.702;9.410;2022-11-11T06:13:33;11.80;;;8.50;;
5869;SDS011;2961;47.702;9.410;2022-11-11T06:16:00;14.48;;;9.55;;
5869;SDS011;2961;47.702;9.410;2022-11-11T06:18:28;15.80;;;11.37;;
5869;SDS011;2961;47.702;9.410;2022-11-11T06:20:55;10.20;;;8.17;;
5869;SDS011;2961;47.702;9.410;2022-11-11T06:23:23;11.37;;;9.00;;
5869;SDS011;2961;47.702;9.410;2022-11-11T06:25:52;15.00;;;8.17;;
5869;SDS011;2961;47.702;9.410;2022-11-11T06:28:36;11.07;;;6.90;;
5869;SDS011;2961;47.702;9.410;2022-11-11T06:31:03;9.17;;;7.20;;
5869;SDS011;2961;47.702;9.410;2022-11-11T06:33:31;7.93;;;7.17;;
5869;SDS011;2961;47.702;9.410;2022-11-11T06:35:58;12.07;;;7.30;;
5869;SDS011;2961;47.702;9.410;2022-11-11T06:38:25;8.23;;;6.70;;
5869;SDS011;2961;47.702;9.410;2022-11-11T06:40:53;12.73;;;7.37;;
5869;SDS011;2961;47.702;9.410;2022-11-11T06:43:20;10.67;;;7.83;;
5869;SDS011;2961;47.702;9.410;2022-11-11T06:45:48;11.50;;;8.00;;
5869;SDS011;2961;47.702;9.410;2022-11-11T06:48:16;11.40;;;7.30;;
5869;SDS011;2961;47.702;9.410;2022-11-11T06:50:42;10.00;;;7.53;;
5869;SDS011;2961;47.702;9.410;2022-11-11T06:53:10;17.83;;;8.47;;
5869;SDS011;2961;47.702;9.410;2022-11-11T06:55:38;12.53;;;8.53;;
5869;SDS011;2961;47.702;9.410;2022-11-11T06:58:07;12.73;;;8.60;;
5869;SDS011;2961;47.702;9.410;2022-11-11T07:00:35;12.63;;;8.00;;
5869;SDS011;2961;47.702;9.410;2022-11-11T07:03:03;15.70;;;10.00;;
5869;SDS011;2961;47.702;9.410;2022-11-11T07:05:31;16.00;;;11.57;;
5869;SDS011;2961;47.702;9.410;2022-11-11T07:08:00;16.10;;;10.65;;
5869;SDS011;2961;47.702;9.410;2022-11-11T07:10:28;16.25;;;11.70;;
5869;SDS011;2961;47.702;9.410;2022-11-11T07:12:54;17.57;;;11.17;;
5869;SDS011;2961;47.702;9.410;2022-11-11T07:15:23;13.50;;;9.50;;
5869;SDS011;2961;47.702;9.410;2022-11-11T07:17:49;18.93;;;10.70;;
5869;SDS011;2961;47.702;9.410;2022-11-11T07:20:16;20.33;;;10.87;;
5869;SDS011;2961;47.702;9.410;2022-11-11T07:22:43;21.97;;;11.30;;
5869;SDS011;2961;47.702;9.410;2022-11-11T07:25:10;21.50;;;10.57;;
5869;SDS011;2961;47.702;9.410;2022-11-11T07:27:37;17.73;;;9.73;;
5869;SDS011;2961;47.702;9.410;2022-11-11T07:30:05;15.07;;;10.40;;
5869;SDS011;2961;47.702;9.410;2022-11-11T07:32:34;23.67;;;12.60;;
5869;SDS011;2961;47.702;9.410;2022-11-11T07:35:02;19.20;;;11.67;;
5869;SDS011;2961;47.702;9.410;2022-11-11T07:37:29;53.13;;;19.73;;
5869;SDS011;2961;47.702;9.410;2022-11-11T07:39:56;55.57;;;21.37;;
5869;SDS011;2961;47.702;9.410;2022-11-11T07:42:23;48.40;;;21.53;;
5869;SDS011;2961;47.702;9.410;2022-11-11T07:44:50;21.70;;;10.80;;
5869;SDS011;2961;47.702;9.410;2022-11-11T07:47:16;18.73;;;11.50;;
5869;SDS011;2961;47.702;9.410;2022-11-11T07:49:45;27.80;;;14.27;;
5869;SDS011;2961;47.702;9.410;2022-11-11T07:52:12;21.40;;;12.60;;
5869;SDS011;2961;47.702;9.410;2022-11-11T07:54:39;15.60;;;10.50;;
5869;SDS011;2961;47.702;9.410;2022-11-11T07:57:05;17.47;;;11.10;;
5869;SDS011;2961;47.702;9.410;2022-11-11T07:59:32;24.27;;;13.33;;
5869;SDS011;2961;47.702;9.410;2022-11-11T08:01:59;37.00;;;24.07;;
5869;SDS011;2961;47.702;9.410;2022-11-11T08:04:26;39.30;;;20.23;;
5869;SDS011;2961;47.702;9.410;2022-11-11T08:06:54;27.13;;;16.10;;
5869;SDS011;2961;47.702;9.410;2022-11-11T08:09:21;29.03;;;17.10;;
5869;SDS011;2961;47.702;9.410;2022-11-11T08:11:47;25.13;;;15.37;;
5869;SDS011;2961;47.702;9.410;2022-11-11T08:14:32;25.10;;;15.07;;
5869;SDS011;2961;47.702;9.410;2022-11-11T08:16:58;21.40;;;13.13;;
5869;SDS011;2961;47.702;9.410;2022-11-11T08:19:25;17.53;;;12.23;;
5869;SDS011;2961;47.702;9.410;2022-11-11T08:21:53;21.40;;;13.37;;
5869;SDS011;2961;47.702;9.410;2022-11-11T08:24:20;20.60;;;13.30;;
5869;SDS011;2961;47.702;9.410;2022-11-11T08:26:47;29.00;;;13.50;;
5869;SDS011;2961;47.702;9.410;2022-11-11T08:29:14;25.20;;;13.67;;
5869;SDS011;2961;47.702;9.410;2022-11-11T08:31:41;22.23;;;13.23;;
5869;SDS011;2961;47.702;9.410;2022-11-11T08:34:08;30.70;;;15.90;;
5869;SDS011;2961;47.702;9.410;2022-11-11T08:36:35;24.47;;;16.60;;
5869;SDS011;2961;47.702;9.410;2022-11-11T08:39:03;32.83;;;14.97;;
5869;SDS011;2961;47.702;9.410;2022-11-11T08:41:30;26.33;;;14.30;;
5869;SDS011;2961;47.702;9.410;2022-11-11T08:43:57;24.97;;;14.37;;
5869;SDS011;2961;47.702;9.410;2022-11-11T08:46:25;23.93;;;14.37;;
5869;SDS011;2961;47.702;9.410;2022-11-11T08:48:52;25.70;;;14.43;;
5869;SDS011;2961;47.702;9.410;2022-11-11T08:51:19;33.50;;;16.43;;
5869;SDS011;2961;47.702;9.410;2022-11-11T08:53:45;26.63;;;13.20;;
5869;SDS011;2961;47.702;9.410;2022-11-11T08:56:14;22.60;;;14.13;;
5869;SDS011;2961;47.702;9.410;2022-11-11T08:58:40;29.60;;;16.40;;
5869;SDS011;2961;47.702;9.410;2022-11-11T09:01:09;26.37;;;15.50;;
5869;SDS011;2961;47.702;9.410;2022-11-11T09:03:37;27.87;;;16.90;;
5869;SDS011;2961;47.702;9.410;2022-11-11T09:06:07;24.63;;;15.33;;
5869;SDS011;2961;47.702;9.410;2022-11-11T09:08:34;31.40;;;17.53;;
5869;SDS011;2961;47.702;9.410;2022-11-11T09:11:01;28.30;;;16.57;;
5869;SDS011;2961;47.702;9.410;2022-11-11T09:13:29;25.50;;;16.07;;
5869;SDS011;2961;47.702;9.410;2022-11-11T09:15:55;26.57;;;16.87;;
5869;SDS011;2961;47.702;9.410;2022-11-11T09:18:23;30.30;;;17.93;;
5869;SDS011;2961;47.702;9.410;2022-11-11T09:20:50;25.30;;;15.53;;
5869;SDS011;2961;47.702;9.410;2022-11-11T09:23:17;24.70;;;14.60;;
5869;SDS011;2961;47.702;9.410;2022-11-11T09:25:44;24.50;;;15.00;;
5869;SDS011;2961;47.702;9.410;2022-11-11T09:28:11;29.90;;;15.83;;
5869;SDS011;2961;47.702;9.410;2022-11-11T09:30:39;26.00;;;15.20;;
5869;SDS011;2961;47.702;9.410;2022-11-11T09:33:06;26.33;;;16.30;;
5869;SDS011;2961;47.702;9.410;2022-11-11T09:35:33;25.13;;;15.27;;
5869;SDS011;2961;47.702;9.410;2022-11-11T09:38:01;27.37;;;16.10;;
5869;SDS011;2961;47.702;9.410;2022-11-11T09:40:32;24.20;;;15.07;;
5869;SDS011;2961;47.702;9.410;2022-11-11T09:43:09;25.87;;;16.20;;
5869;SDS011;2961;47.702;9.410;2022-11-11T09:45:50;28.23;;;17.97;;
5869;SDS011;2961;47.702;9.410;2022-11-11T09:48:32;31.37;;;16.17;;
5869;SDS011;2961;47.702;9.410;2022-11-11T09:51:04;27.73;;;16.60;;
5869;SDS011;2961;47.702;9.410;2022-11-11T09:53:34;29.70;;;18.13;;
5869;SDS011;2961;47.702;9.410;2022-11-11T09:56:06;35.73;;;18.20;;
5869;SDS011;2961;47.702;9.410;2022-11-11T09:58:36;30.47;;;18.20;;
5869;SDS011;2961;47.702;9.410;2022-11-11T10:01:09;32.30;;;20.50;;
5869;SDS011;2961;47.702;9.410;2022-11-11T10:03:40;37.23;;;21.33;;
5869;SDS011;2961;47.702;9.410;2022-11-11T10:06:12;35.33;;;20.93;;
5869;SDS011;2961;47.702;9.410;2022-11-11T10:08:44;28.00;;;20.60;;
5869;SDS011;2961;47.702;9.410;2022-11-11T10:11:17;33.23;;;19.33;;
5869;SDS011;2961;47.702;9.410;2022-11-11T10:13:51;36.27;;;19.23;;
5869;SDS011;2961;47.702;9.410;2022-11-11T10:16:22;35.47;;;20.17;;
5869;SDS011;2961;47.702;9.410;2022-11-11T10:19:01;44.80;;;21.30;;
5869;SDS011;2961;47.702;9.410;2022-11-11T10:21:40;37.97;;;19.53;;
5869;SDS011;2961;47.702;9.410;2022-11-11T10:24:15;31.93;;;18.70;;
5869;SDS011;2961;47.702;9.410;2022-11-11T10:26:43;35.63;;;20.27;;
5869;SDS011;2961;47.702;9.410;2022-11-11T10:29:12;32.77;;;17.77;;
5869;SDS011;2961;47.702;9.410;2022-11-11T10:31:43;32.93;;;19.23;;
5869;SDS011;2961;47.702;9.410;2022-11-11T10:34:16;27.47;;;17.17;;
5869;SDS011;2961;47.702;9.410;2022-11-11T10:36:45;32.57;;;18.47;;
5869;SDS011;2961;47.702;9.410;2022-11-11T10:39:16;30.20;;;17.57;;
5869;SDS011;2961;47.702;9.410;2022-11-11T10:41:49;37.93;;;19.37;;
5869;SDS011;2961;47.702;9.410;2022-11-11T10:44:18;31.70;;;18.40;;
5869;SDS011;2961;47.702;9.410;2022-11-11T10:46:51;34.83;;;19.13;;
5869;SDS011;2961;47.702;9.410;2022-11-11T10:49:23;30.17;;;17.97;;
5869;SDS011;2961;47.702;9.410;2022-11-11T10:51:55;40.23;;;18.10;;
5869;SDS011;2961;47.702;9.410;2022-11-11T10:54:28;40.30;;;24.23;;
5869;SDS011;2961;47.702;9.410;2022-11-11T10:57:02;37.23;;;20.47;;
5869;SDS011;2961;47.702;9.410;2022-11-11T10:59:36;33.13;;;19.57;;
5869;SDS011;2961;47.702;9.410;2022-11-11T11:02:12;29.73;;;18.47;;
5869;SDS011;2961;47.702;9.410;2022-11-11T11:04:45;35.50;;;19.00;;
5869;SDS011;2961;47.702;9.410;2022-11-11T11:07:14;30.40;;;18.63;;
5869;SDS011;2961;47.702;9.410;2022-11-11T11:09:47;29.80;;;19.13;;
5869;SDS011;2961;47.702;9.410;2022-11-11T11:12:21;31.97;;;18.87;;
5869;SDS011;2961;47.702;9.410;2022-11-11T11:14:53;36.40;;;19.40;;
5869;SDS011;2961;47.702;9.410;2022-11-11T11:17:26;29.33;;;18.60;;
5869;SDS011;2961;47.702;9.410;2022-11-11T11:20:06;27.87;;;19.13;;
5869;SDS011;2961;47.702;9.410;2022-11-11T11:22:45;33.00;;;19.60;;
5869;SDS011;2961;47.702;9.410;2022-11-11T11:25:14;30.63;;;18.00;;
5869;SDS011;2961;47.702;9.410;2022-11-11T11:27:42;24.27;;;16.50;;
5869;SDS011;2961;47.702;9.410;2022-11-11T11:30:10;29.23;;;18.00;;
5869;SDS011;2961;47.702;9.410;2022-11-11T11:32:40;34.17;;;21.00;;
5869;SDS011;2961;47.702;9.410;2022-11-11T11:35:09;33.77;;;21.30;;
5869;SDS011;2961;47.702;9.410;2022-11-11T11:37:54;31.87;;;19.60;;
5869;SDS011;2961;47.702;9.410;2022-11-11T11:40:20;28.10;;;17.17;;
5869;SDS011;2961;47.702;9.410;2022-11-11T11:42:47;33.20;;;19.30;;
5869;SDS011;2961;47.702;9.410;2022-11-11T11:45:15;29.20;;;18.40;;
5869;SDS011;2961;47.702;9.410;2022-11-11T11:47:50;31.60;;;18.60;;
5869;SDS011;2961;47.702;9.410;2022-11-11T11:50:34;30.37;;;17.90;;
5869;SDS011;2961;47.702;9.410;2022-11-11T11:53:10;30.93;;;18.87;;
5869;SDS011;2961;47.702;9.410;2022-11-11T11:55:49;31.50;;;20.53;;
5869;SDS011;2961;47.702;9.410;2022-11-11T11:58:21;32.63;;;19.13;;
5869;SDS011;2961;47.702;9.410;2022-11-11T12:00:58;34.50;;;17.83;;
5869;SDS011;2961;47.702;9.410;2022-11-11T12:03:36;33.90;;;17.73;;
5869;SDS011;2961;47.702;9.410;2022-11-11T12:06:24;35.63;;;19.30;;
5869;SDS011;2961;47.702;9.410;2022-11-11T12:09:01;30.33;;;18.23;;
5869;SDS011;2961;47.702;9.410;2022-11-11T12:11:36;32.33;;;19.67;;
5869;SDS011;2961;47.702;9.410;2022-11-11T12:14:23;32.03;;;19.43;;
5869;SDS011;2961;47.702;9.410;2022-11-11T12:17:03;29.10;;;20.80;;
5869;SDS011;2961;47.702;9.410;2022-11-11T12:19:43;28.63;;;18.73;;
5869;SDS011;2961;47.702;9.410;2022-11-11T12:22:24;31.53;;;20.53;;
5869;SDS011;2961;47.702;9.410;2022-11-11T12:25:04;32.13;;;19.30;;
5869;SDS011;2961;47.702;9.410;2022-11-11T12:27:38;34.50;;;17.70;;
5869;SDS011;2961;47.702;9.410;2022-11-11T12:30:17;31.13;;;18.70;;
5869;SDS011;2961;47.702;9.410;2022-11-11T12:32:50;34.33;;;20.77;;
5869;SDS011;2961;47.702;9.410;2022-11-11T12:35:37;33.78;;;21.15;;
5869;SDS011;2961;47.702;9.410;2022-11-11T12:38:20;32.13;;;19.93;;
5869;SDS011;2961;47.702;9.410;2022-11-11T12:40:56;29.30;;;18.37;;
5869;SDS011;2961;47.702;9.410;2022-11-11T12:43:34;31.13;;;19.80;;
5869;SDS011;2961;47.702;9.410;2022-11-11T12:46:11;36.27;;;21.30;;
5869;SDS011;2961;47.702;9.410;2022-11-11T12:48:53;27.73;;;19.53;;
5869;SDS011;2961;47.702;9.410;2022-11-11T12:51:32;29.30;;;17.70;;
5869;SDS011;2961;47.702;9.410;2022-11-11T12:54:15;37.53;;;20.83;;
5869;SDS011;2961;47.702;9.410;2022-11-11T12:56:48;34.00;;;20.27;;
5869;SDS011;2961;47.702;9.410;2022-11-11T12:59:22;28.57;;;18.03;;
5869;SDS011;2961;47.702;9.410;2022-11-11T13:01:56;39.93;;;24.47;;
5869;SDS011;2961;47.702;9.410;2022-11-11T13:04:43;34.93;;;20.13;;
5869;SDS011;2961;47.702;9.410;2022-11-11T13:07:31;43.20;;;22.63;;
5869;SDS011;2961;47.702;9.410;2022-11-11T13:10:22;33.17;;;20.60;;
5869;SDS011;2961;47.702;9.410;2022-11-11T13:12:57;29.10;;;17.70;;
5869;SDS011;2961;47.702;9.410;2022-11-11T13:15:31;33.03;;;19.70;;
5869;SDS011;2961;47.702;9.410;2022-11-11T13:17:58;25.77;;;16.37;;
5869;SDS011;2961;47.702;9.410;2022-11-11T13:20:39;33.83;;;19.10;;
5869;SDS011;2961;47.702;9.410;2022-11-11T13:23:12;28.53;;;17.97;;
5869;SDS011;2961;47.702;9.410;2022-11-11T13:25:40;24.77;;;16.13;;
5869;SDS011;2961;47.702;9.410;2022-11-11T13:28:15;25.90;;;16.70;;
5869;SDS011;2961;47.702;9.410;2022-11-11T13:33:40;29.13;;;16.27;;
5869;SDS011;2961;47.702;9.410;2022-11-11T13:36:10;24.70;;;16.27;;
5869;SDS011;2961;47.702;9.410;2022-11-11T13:38:45;31.07;;;18.20;;
5869;SDS011;2961;47.702;9.410;2022-11-11T13:41:18;32.20;;;18.90;;
5869;SDS011;2961;47.702;9.410;2022-11-11T13:43:49;25.50;;;16.73;;
5869;SDS011;2961;47.702;9.410;2022-11-11T13:46:29;25.17;;;17.30;;
5869;SDS011;2961;47.702;9.410;2022-11-11T13:48:59;27.80;;;18.17;;
5869;SDS011;2961;47.702;9.410;2022-11-11T13:51:29;31.73;;;19.00;;
5869;SDS011;2961;47.702;9.410;2022-11-11T13:54:01;37.60;;;23.47;;
5869;SDS011;2961;47.702;9.410;2022-11-11T13:56:34;39.07;;;24.57;;
5869;SDS011;2961;47.702;9.410;2022-11-11T13:59:03;24.70;;;16.00;;
5869;SDS011;2961;47.702;9.410;2022-11-11T14:01:32;26.43;;;17.20;;
5869;SDS011;2961;47.702;9.410;2022-11-11T14:04:01;29.33;;;16.80;;
5869;SDS011;2961;47.702;9.410;2022-11-11T14:12:33;29.97;;;16.80;;
5869;SDS011;2961;47.702;9.410;2022-11-11T14:15:01;29.63;;;18.07;;
5869;SDS011;2961;47.702;9.410;2022-11-11T14:17:32;29.50;;;18.20;;
5869;SDS011;2961;47.702;9.410;2022-11-11T14:23:14;28.47;;;16.90;;
5869;SDS011;2961;47.702;9.410;2022-11-11T14:25:50;28.70;;;16.97;;
5869;SDS011;2961;47.702;9.410;2022-11-11T14:28:41;28.17;;;16.70;;
5869;SDS011;2961;47.702;9.410;2022-11-11T14:34:25;26.70;;;16.37;;
5869;SDS011;2961;47.702;9.410;2022-11-11T14:37:08;30.23;;;17.03;;
5869;SDS011;2961;47.702;9.410;2022-11-11T14:39:46;29.37;;;16.80;;
5869;SDS011;2961;47.702;9.410;2022-11-11T14:57:14;26.07;;;16.93;;
5869;SDS011;2961;47.702;9.410;2022-11-11T14:59:47;24.43;;;14.90;;
5869;SDS011;2961;47.702;9.410;2022-11-11T15:02:21;27.37;;;17.00;;
5869;SDS011;2961;47.702;9.410;2022-11-11T15:04:56;27.90;;;18.13;;
5869;SDS011;2961;47.702;9.410;2022-11-11T15:07:29;27.47;;;16.93;;
5869;SDS011;2961;47.702;9.410;2022-11-11T15:10:10;30.50;;;17.43;;
5869;SDS011;2961;47.702;9.410;2022-11-11T15:12:54;30.83;;;16.67;;
5869;SDS011;2961;47.702;9.410;2022-11-11T15:15:40;29.60;;;17.20;;
5869;SDS011;2961;47.702;9.410;2022-11-11T15:18:19;26.07;;;16.60;;
5869;SDS011;2961;47.702;9.410;2022-11-11T15:21:00;27.70;;;17.47;;
5869;SDS011;2961;47.702;9.410;2022-11-11T15:23:32;25.90;;;15.90;;
5869;SDS011;2961;47.702;9.410;2022-11-11T15:26:05;26.60;;;17.10;;
5869;SDS011;2961;47.702;9.410;2022-11-11T15:28:52;30.43;;;17.70;;
5869;SDS011;2961;47.702;9.410;2022-11-11T15:31:30;29.77;;;17.23;;
5869;SDS011;2961;47.702;9.410;2022-11-11T15:34:03;34.65;;;19.50;;
5869;SDS011;2961;47.702;9.410;2022-11-11T15:36:45;33.10;;;20.35;;
5869;SDS011;2961;47.702;9.410;2022-11-11T15:39:18;28.17;;;18.23;;
5869;SDS011;2961;47.702;9.410;2022-11-11T15:41:49;26.63;;;17.63;;
5869;SDS011;2961;47.702;9.410;2022-11-11T15:44:18;29.80;;;19.60;;
5869;SDS011;2961;47.702;9.410;2022-11-11T15:46:49;30.87;;;18.30;;
5869;SDS011;2961;47.702;9.410;2022-11-11T15:52:27;30.50;;;18.10;;
5869;SDS011;2961;47.702;9.410;2022-11-11T15:54:55;28.27;;;18.20;;
5869;SDS011;2961;47.702;9.410;2022-11-11T15:57:27;48.07;;;26.10;;
5869;SDS011;2961;47.702;9.410;2022-11-11T15:59:56;35.10;;;20.30;;